createdAt,value
2019-01-24T00:00:27.724Z,-2.60
2019-01-24T00:02:56.632Z,-2.60
2019-01-24T00:05:25.238Z,-2.60
2019-01-24T00:07:53.967Z,-2.60
2019-01-24T00:10:23.955Z,-2.60
2019-01-24T00:12:53.646Z,-2.60
2019-01-24T00:15:22.202Z,-2.60
2019-01-24T00:17:50.777Z,-2.60
2019-01-24T00:20:19.385Z,-2.60
2019-01-24T00:22:47.965Z,-2.60
2019-01-24T00:25:16.471Z,-2.60
2019-01-24T00:27:44.933Z,-2.60
2019-01-24T00:30:17.422Z,-2.70
2019-01-24T00:32:46.079Z,-2.60
2019-01-24T00:35:14.683Z,-2.50
2019-01-24T00:37:43.342Z,-2.50
2019-01-24T00:40:17.049Z,-2.50
2019-01-24T00:42:45.761Z,-2.50
2019-01-24T00:45:14.551Z,-2.50
2019-01-24T00:47:43.385Z,-2.60
2019-01-24T00:50:13.882Z,-2.50
2019-01-24T00:52:42.384Z,-2.60
2019-01-24T00:55:15.181Z,-2.60
2019-01-24T00:57:43.655Z,-2.70
2019-01-24T01:00:21.123Z,-2.70
2019-01-24T01:02:49.905Z,-2.80
2019-01-24T01:05:18.498Z,-2.80
2019-01-24T01:07:47.220Z,-2.80
2019-01-24T01:10:15.748Z,-2.80
2019-01-24T01:12:44.230Z,-2.80
2019-01-24T01:15:17.403Z,-2.70
2019-01-24T01:17:45.916Z,-2.80
2019-01-24T01:20:19.527Z,-2.90
2019-01-24T01:22:48.059Z,-2.90
2019-01-24T01:25:16.682Z,-2.90
2019-01-24T01:27:45.358Z,-2.90
2019-01-24T01:30:19.734Z,-2.90
2019-01-24T01:32:48.568Z,-3.00
2019-01-24T01:35:17.382Z,-3.00
2019-01-24T01:37:46.275Z,-3.00
2019-01-24T01:40:17.256Z,-3.00
2019-01-24T01:42:46.045Z,-3.00
2019-01-24T01:45:17.128Z,-3.00
2019-01-24T01:47:45.696Z,-3.00
2019-01-24T01:50:16.904Z,-2.90
2019-01-24T01:52:45.593Z,-2.80
2019-01-24T01:55:14.213Z,-2.90
2019-01-24T01:57:42.863Z,-2.90
2019-01-24T02:00:14.802Z,-3.00
2019-01-24T02:02:43.374Z,-3.00
2019-01-24T02:05:12.476Z,-3.00
2019-01-24T02:07:41.038Z,-3.10
2019-01-24T02:10:15.713Z,-3.00
2019-01-24T02:12:44.295Z,-2.90
2019-01-24T02:15:14.353Z,-2.90
2019-01-24T02:17:42.786Z,-2.80
2019-01-24T02:20:14.586Z,-2.80
2019-01-24T02:22:43.091Z,-2.80
2019-01-24T02:25:11.650Z,-2.90
2019-01-24T02:27:40.337Z,-2.90
2019-01-24T02:30:15.190Z,-3.00
2019-01-24T02:32:43.727Z,-3.00
2019-01-24T02:35:12.285Z,-3.10
2019-01-24T02:37:40.850Z,-3.20
2019-01-24T02:40:10.199Z,-3.30
2019-01-24T02:42:38.685Z,-3.30
2019-01-24T02:45:10.557Z,-3.40
2019-01-24T02:47:39.113Z,-3.30
2019-01-24T02:50:11.147Z,-3.30
2019-01-24T02:52:39.815Z,-3.30
2019-01-24T02:55:11.102Z,-3.30
2019-01-24T02:57:39.710Z,-3.30
2019-01-24T03:00:13.849Z,-3.30
2019-01-24T03:02:42.510Z,-3.30
2019-01-24T03:05:13.585Z,-3.40
2019-01-24T03:07:42.078Z,-3.40
2019-01-24T03:10:12.913Z,-3.40
2019-01-24T03:12:41.467Z,-3.30
2019-01-24T03:15:18.861Z,-3.30
2019-01-24T03:17:47.306Z,-3.40
2019-01-24T03:20:17.769Z,-3.40
2019-01-24T03:22:46.471Z,-3.40
2019-01-24T03:25:16.524Z,-3.50
2019-01-24T03:27:45.121Z,-3.50
2019-01-24T03:30:18.323Z,-3.40
2019-01-24T03:32:46.915Z,-3.40
2019-01-24T03:35:21.555Z,-3.30
2019-01-24T03:37:50.090Z,-3.30
2019-01-24T03:40:18.654Z,-3.30
2019-01-24T03:42:47.202Z,-3.30
2019-01-24T03:45:19.563Z,-3.30
2019-01-24T03:47:48.174Z,-3.30
2019-01-24T03:50:19.117Z,-3.20
2019-01-24T03:52:47.838Z,-3.30
2019-01-24T03:55:18.060Z,-3.40
2019-01-24T03:57:46.592Z,-3.30
2019-01-24T04:00:22.408Z,-3.30
2019-01-24T04:02:51.007Z,-3.20
2019-01-24T04:05:19.782Z,-3.20
2019-01-24T04:07:48.412Z,-3.20
2019-01-24T04:10:18.575Z,-3.20
2019-01-24T04:12:47.248Z,-3.20
2019-01-24T04:15:20.601Z,-3.30
2019-01-24T04:17:49.181Z,-3.30
2019-01-24T04:20:17.667Z,-3.30
2019-01-24T04:22:46.363Z,-3.40
2019-01-24T04:25:14.763Z,-3.40
2019-01-24T04:27:43.322Z,-3.50
2019-01-24T04:30:17.712Z,-3.50
2019-01-24T04:32:46.359Z,-3.50
2019-01-24T04:35:19.653Z,-3.50
2019-01-24T04:37:45.227Z,-3.60
2019-01-24T04:40:18.510Z,-3.60
2019-01-24T04:42:47.073Z,-3.60
2019-01-24T04:45:16.953Z,-3.60
2019-01-24T04:47:45.517Z,-3.50
2019-01-24T04:50:15.932Z,-3.50
2019-01-24T04:52:44.491Z,-3.60
2019-01-24T04:55:16.232Z,-3.60
2019-01-24T04:57:44.699Z,-3.50
2019-01-24T05:00:25.152Z,-3.50
2019-01-24T05:02:53.707Z,-3.60
2019-01-24T05:05:27.663Z,-3.50
2019-01-24T05:07:52.344Z,-3.50
2019-01-24T05:10:20.940Z,-3.60
2019-01-24T05:12:49.504Z,-3.50
2019-01-24T05:15:18.013Z,-3.50
2019-01-24T05:17:46.485Z,-3.60
2019-01-24T05:20:15.166Z,-3.70
2019-01-24T05:22:43.842Z,-3.70
2019-01-24T05:25:14.554Z,-3.60
2019-01-24T05:27:43.072Z,-3.60
2019-01-24T05:30:20.589Z,-3.60
2019-01-24T05:32:49.065Z,-3.60
2019-01-24T05:35:17.695Z,-3.60
2019-01-24T05:37:46.571Z,-3.70
2019-01-24T05:40:15.225Z,-3.80
2019-01-24T05:42:43.849Z,-3.90
2019-01-24T05:45:13.774Z,-3.90
2019-01-24T05:47:42.239Z,-3.90
2019-01-24T05:50:11.892Z,-4.00
2019-01-24T05:52:40.585Z,-3.90
2019-01-24T05:55:11.546Z,-3.90
2019-01-24T05:57:40.079Z,-3.80
2019-01-24T06:00:11.883Z,-3.90
2019-01-24T06:02:40.503Z,-4.00
2019-01-24T06:05:10.722Z,-4.10
2019-01-24T06:07:39.502Z,-4.10
2019-01-24T06:10:13.630Z,-4.00
2019-01-24T06:12:42.292Z,-4.10
2019-01-24T06:15:13.948Z,-4.10
2019-01-24T06:17:42.433Z,-4.10
2019-01-24T06:20:11.136Z,-4.10
2019-01-24T06:22:39.895Z,-4.10
2019-01-24T06:25:10.516Z,-4.20
2019-01-24T06:27:39.109Z,-4.20
2019-01-24T06:30:22.031Z,-4.20
2019-01-24T06:32:50.627Z,-4.20
2019-01-24T06:35:19.096Z,-4.30
2019-01-24T06:37:47.933Z,-4.20
2019-01-24T06:40:16.715Z,-4.20
2019-01-24T06:42:45.275Z,-4.20
2019-01-24T06:45:23.656Z,-4.20
2019-01-24T06:47:52.160Z,-4.20
2019-01-24T06:50:20.705Z,-4.10
2019-01-24T06:52:49.248Z,-4.00
2019-01-24T06:55:26.482Z,-3.90
2019-01-24T06:57:55.169Z,-3.80
2019-01-24T07:00:23.846Z,-3.80
2019-01-24T07:02:52.409Z,-3.80
2019-01-24T07:05:21.146Z,-3.70
2019-01-24T07:07:49.793Z,-3.80
2019-01-24T07:10:20.966Z,-3.90
2019-01-24T07:12:49.691Z,-3.80
2019-01-24T07:15:20.078Z,-3.90
2019-01-24T07:17:48.594Z,-3.90
2019-01-24T07:20:19.114Z,-3.80
2019-01-24T07:22:47.682Z,-3.80
2019-01-24T07:25:24.764Z,-3.80
2019-01-24T07:27:53.448Z,-3.80
2019-01-24T07:30:22.003Z,-3.80
2019-01-24T07:32:50.816Z,-3.70
2019-01-24T07:35:20.310Z,-3.80
2019-01-24T07:37:48.886Z,-3.80
2019-01-24T07:40:18.909Z,-3.90
2019-01-24T07:42:47.634Z,-3.90
2019-01-24T07:45:25.224Z,-3.90
2019-01-24T07:47:53.934Z,-3.90
2019-01-24T07:50:22.789Z,-3.90
2019-01-24T07:52:51.419Z,-3.80
2019-01-24T07:55:19.942Z,-3.80
2019-01-24T07:57:48.405Z,-3.80
2019-01-24T08:00:19.761Z,-3.80
2019-01-24T08:02:48.369Z,-3.80
2019-01-24T08:05:17.243Z,-3.70
2019-01-24T08:07:45.973Z,-3.70
2019-01-24T08:10:19.338Z,-3.60
2019-01-24T08:12:47.982Z,-3.60
2019-01-24T08:15:18.527Z,-3.60
2019-01-24T08:17:47.223Z,-3.60
2019-01-24T08:20:20.791Z,-3.50
2019-01-24T08:22:49.692Z,-3.60
2019-01-24T08:25:18.211Z,-3.60
2019-01-24T08:27:46.925Z,-3.50
2019-01-24T08:30:30.048Z,-3.40
2019-01-24T08:32:58.633Z,-3.30
2019-01-24T08:35:27.319Z,-3.20
2019-01-24T08:37:56.096Z,-3.10
2019-01-24T08:40:25.282Z,-3.00
2019-01-24T08:42:54.500Z,-2.90
2019-01-24T08:45:23.170Z,-2.90
2019-01-24T08:47:51.815Z,-2.80
2019-01-24T08:50:24.903Z,-2.80
2019-01-24T08:52:53.566Z,-2.80
2019-01-24T08:55:25.259Z,-2.80
2019-01-24T08:57:54.072Z,-2.70
2019-01-24T09:00:22.578Z,-2.50
2019-01-24T09:02:51.892Z,-2.60
2019-01-24T09:05:20.681Z,-2.50
2019-01-24T09:07:49.466Z,-2.50
2019-01-24T09:10:23.884Z,-2.60
2019-01-24T09:12:52.503Z,-2.50
2019-01-24T09:15:21.115Z,-2.50
2019-01-24T09:17:49.699Z,-2.40
2019-01-24T09:20:19.758Z,-2.30
2019-01-24T09:22:54.986Z,-2.30
2019-01-24T09:25:18.700Z,-2.20
2019-01-24T09:27:47.602Z,-2.20
2019-01-24T09:30:18.915Z,-2.20
2019-01-24T09:32:47.641Z,-2.20
2019-01-24T09:35:16.515Z,-2.10
2019-01-24T09:37:45.096Z,-1.90
2019-01-24T09:40:16.585Z,-2.00
2019-01-24T09:42:45.243Z,-1.80
2019-01-24T09:45:16.436Z,-1.60
2019-01-24T09:47:45.004Z,-1.50
2019-01-24T09:50:16.443Z,-1.40
2019-01-24T09:52:45.419Z,-1.30
2019-01-24T09:55:13.972Z,-1.30
2019-01-24T09:57:42.609Z,-1.30
2019-01-24T10:00:15.638Z,-1.30
2019-01-24T10:02:44.274Z,-1.30
2019-01-24T10:05:13.597Z,-1.30
2019-01-24T10:07:43.967Z,-1.20
2019-01-24T10:10:15.316Z,-1.10
2019-01-24T10:12:44.172Z,-1.00
2019-01-24T10:15:14.661Z,-0.70
2019-01-24T10:17:43.238Z,-0.60
2019-01-24T10:20:23.487Z,-0.40
2019-01-24T10:22:52.009Z,-0.50
2019-01-24T10:25:22.881Z,-0.70
2019-01-24T10:27:51.755Z,-0.80
2019-01-24T10:30:22.227Z,-0.90
2019-01-24T10:32:50.975Z,-0.80
2019-01-24T10:35:20.090Z,-0.70
2019-01-24T10:37:48.908Z,-0.70
2019-01-24T10:40:23.147Z,-0.60
2019-01-24T10:42:51.806Z,-0.60
2019-01-24T10:45:21.588Z,-0.80
2019-01-24T10:47:51.701Z,-1.00
2019-01-24T10:50:27.767Z,-1.10
2019-01-24T10:52:56.368Z,-1.20
2019-01-24T10:55:26.650Z,-1.30
2019-01-24T10:57:57.122Z,-1.30
2019-01-24T11:00:34.312Z,-1.20
2019-01-24T11:03:05.414Z,-1.20
2019-01-24T11:05:33.937Z,-1.20
2019-01-24T11:08:02.542Z,-1.20
2019-01-24T11:10:31.272Z,-1.20
2019-01-24T11:12:59.921Z,-1.20
2019-01-24T11:15:28.429Z,-1.30
2019-01-24T11:17:57.124Z,-1.30
2019-01-24T11:20:25.637Z,-1.20
2019-01-24T11:22:54.207Z,-1.20
2019-01-24T11:25:26.854Z,-1.20
2019-01-24T11:27:55.437Z,-1.20
2019-01-24T11:30:26.614Z,-1.10
2019-01-24T11:32:55.219Z,-1.00
2019-01-24T11:35:26.706Z,-1.00
2019-01-24T11:37:55.222Z,-1.00
2019-01-24T11:40:23.726Z,-1.00
2019-01-24T11:42:52.266Z,-0.90
2019-01-24T11:45:26.694Z,-0.90
2019-01-24T11:47:55.331Z,-0.80
2019-01-24T11:50:23.899Z,-0.60
2019-01-24T11:52:52.477Z,-0.50
2019-01-24T11:55:21.737Z,-0.40
2019-01-24T11:57:50.390Z,-0.30
2019-01-24T12:00:34.931Z,-0.10
2019-01-24T12:03:03.593Z,0.20
2019-01-24T12:05:32.033Z,0.80
2019-01-24T12:08:00.678Z,0.90
2019-01-24T12:10:30.336Z,0.70
2019-01-24T12:12:59.180Z,0.70
2019-01-24T12:15:29.574Z,0.50
2019-01-24T12:17:58.152Z,0.30
2019-01-24T12:20:26.763Z,0.30
2019-01-24T12:22:55.501Z,0.30
2019-01-24T12:25:24.087Z,0.30
2019-01-24T12:27:52.680Z,0.30
2019-01-24T12:30:26.905Z,0.00
2019-01-24T12:32:55.815Z,-0.20
2019-01-24T12:35:24.375Z,-0.40
2019-01-24T12:37:52.889Z,-0.50
2019-01-24T12:40:21.695Z,-0.70
2019-01-24T12:42:50.254Z,-0.80
2019-01-24T12:45:24.502Z,-0.90
2019-01-24T12:47:53.484Z,-0.90
2019-01-24T12:50:22.653Z,-0.90
2019-01-24T12:52:51.543Z,-1.00
2019-01-24T12:55:20.169Z,-1.10
2019-01-24T12:57:48.662Z,-1.10
2019-01-24T13:00:25.990Z,-1.10
2019-01-24T13:02:54.562Z,-1.20
2019-01-24T13:05:23.135Z,-1.30
2019-01-24T13:07:51.749Z,-1.40
2019-01-24T13:10:22.904Z,-1.50
2019-01-24T13:12:51.405Z,-1.50
2019-01-24T13:15:22.288Z,-1.50
2019-01-24T13:17:50.892Z,-1.50
2019-01-24T13:20:19.631Z,-1.60
2019-01-24T13:22:49.196Z,-1.70
2019-01-24T13:25:25.731Z,-1.70
2019-01-24T13:27:54.614Z,-1.80
2019-01-24T13:30:28.157Z,-1.80
2019-01-24T13:32:56.751Z,-1.90
2019-01-24T13:35:25.597Z,-1.90
2019-01-24T13:37:54.220Z,-2.00
2019-01-24T13:40:25.331Z,-2.00
2019-01-24T13:42:54.204Z,-2.10
2019-01-24T13:45:26.062Z,-2.20
2019-01-24T13:47:54.463Z,-2.30
2019-01-24T13:50:23.027Z,-2.30
2019-01-24T13:52:51.711Z,-2.20
2019-01-24T13:55:20.998Z,-2.20
2019-01-24T13:57:49.892Z,-2.30
2019-01-24T14:00:24.440Z,-2.30
2019-01-24T14:02:59.377Z,-2.30
2019-01-24T14:05:27.936Z,-2.30
2019-01-24T14:07:56.529Z,-2.40
2019-01-24T14:10:25.056Z,-2.40
2019-01-24T14:12:53.554Z,-2.50
2019-01-24T14:15:22.089Z,-2.50
2019-01-24T14:17:50.765Z,-2.60
2019-01-24T14:20:20.952Z,-2.60
2019-01-24T14:22:49.506Z,-2.70
2019-01-24T14:25:19.634Z,-2.60
2019-01-24T14:27:48.463Z,-2.70
2019-01-24T14:30:25.114Z,-2.80
2019-01-24T14:32:53.821Z,-2.80
2019-01-24T14:35:22.626Z,-2.70
2019-01-24T14:37:51.397Z,-2.70
2019-01-24T14:40:20.745Z,-2.70
2019-01-24T14:42:49.332Z,-2.60
2019-01-24T14:45:23.913Z,-2.60
2019-01-24T14:47:52.425Z,-2.70
2019-01-24T14:50:26.500Z,-2.70
2019-01-24T14:52:55.190Z,-2.70
2019-01-24T14:55:23.852Z,-2.80
2019-01-24T14:57:52.917Z,-2.90
2019-01-24T15:00:25.127Z,-2.90
2019-01-24T15:02:54.136Z,-2.80
2019-01-24T15:05:22.927Z,-2.90
2019-01-24T15:07:51.568Z,-2.90
2019-01-24T15:10:20.661Z,-2.90
2019-01-24T15:12:49.228Z,-2.90
2019-01-24T15:15:19.809Z,-2.80
2019-01-24T15:17:48.657Z,-2.80
2019-01-24T15:20:18.745Z,-2.80
2019-01-24T15:22:47.546Z,-2.80
2019-01-24T15:25:18.583Z,-2.90
2019-01-24T15:27:47.261Z,-3.00
2019-01-24T15:30:24.759Z,-3.00
2019-01-24T15:32:53.344Z,-3.00
2019-01-24T15:35:21.775Z,-3.00
2019-01-24T15:37:54.425Z,-3.00
2019-01-24T15:40:23.276Z,-3.00
2019-01-24T15:42:52.113Z,-3.00
2019-01-24T15:45:20.910Z,-3.00
2019-01-24T15:47:49.770Z,-3.10
2019-01-24T15:50:20.524Z,-3.10
2019-01-24T15:52:49.116Z,-3.00
2019-01-24T15:55:18.115Z,-3.10
2019-01-24T15:57:46.633Z,-3.10
2019-01-24T16:00:23.396Z,-3.10
2019-01-24T16:02:52.031Z,-3.10
2019-01-24T16:05:20.984Z,-3.10
2019-01-24T16:07:49.781Z,-3.10
2019-01-24T16:10:20.643Z,-3.10
2019-01-24T16:12:49.256Z,-3.10
2019-01-24T16:15:32.407Z,-3.10
2019-01-24T16:18:00.985Z,-3.10
2019-01-24T16:20:30.495Z,-3.00
2019-01-24T16:22:59.208Z,-3.00
2019-01-24T16:25:31.032Z,-3.10
2019-01-24T16:28:01.472Z,-3.00
2019-01-24T16:30:35.631Z,-3.00
2019-01-24T16:33:06.717Z,-3.00
2019-01-24T16:35:35.588Z,-3.00
2019-01-24T16:38:09.299Z,-2.90
2019-01-24T16:40:34.847Z,-2.90
2019-01-24T16:43:03.542Z,-2.90
2019-01-24T16:45:32.303Z,-3.00
2019-01-24T16:48:00.926Z,-3.00
2019-01-24T16:50:29.477Z,-3.10
2019-01-24T16:52:58.122Z,-3.00
2019-01-24T16:55:26.928Z,-3.00
2019-01-24T16:57:55.584Z,-3.00
2019-01-24T17:00:27.655Z,-3.00
2019-01-24T17:02:56.572Z,-3.00
2019-01-24T17:05:25.559Z,-3.00
2019-01-24T17:08:16.717Z,-3.10
2019-01-24T17:10:44.107Z,-3.10
2019-01-24T17:13:12.901Z,-3.20
2019-01-24T17:15:42.257Z,-3.30
2019-01-24T17:18:11.067Z,-3.30
2019-01-24T17:20:39.549Z,-3.30
2019-01-24T17:23:08.082Z,-3.30
2019-01-24T17:25:36.761Z,-3.30
2019-01-24T17:28:05.655Z,-3.30
2019-01-24T17:30:35.132Z,-3.30
2019-01-24T17:33:03.938Z,-3.30
2019-01-24T17:35:32.489Z,-3.30
2019-01-24T17:38:01.115Z,-3.30
2019-01-24T17:40:31.984Z,-3.30
2019-01-24T17:43:01.041Z,-3.30
2019-01-24T17:45:30.066Z,-3.30
2019-01-24T17:47:58.668Z,-3.30
2019-01-24T17:50:27.783Z,-3.30
2019-01-24T17:52:58.324Z,-3.30
2019-01-24T17:55:36.026Z,-3.30
2019-01-24T17:58:06.166Z,-3.30
2019-01-24T18:00:36.809Z,-3.30
2019-01-24T18:03:05.660Z,-3.30
2019-01-24T18:05:34.656Z,-3.30
2019-01-24T18:08:03.257Z,-3.30
2019-01-24T18:10:33.105Z,-3.30
2019-01-24T18:13:01.935Z,-3.30
2019-01-24T18:15:35.315Z,-3.40
2019-01-24T18:18:05.866Z,-3.30
2019-01-24T18:20:36.667Z,-3.40
2019-01-24T18:23:07.543Z,-3.40
2019-01-24T18:25:36.181Z,-3.40
2019-01-24T18:28:06.882Z,-3.40
2019-01-24T18:30:35.577Z,-3.30
2019-01-24T18:33:04.291Z,-3.30
2019-01-24T18:35:32.802Z,-3.40
2019-01-24T18:38:01.429Z,-3.30
2019-01-24T18:40:31.235Z,-3.30
2019-01-24T18:43:00.172Z,-3.30
2019-01-24T18:45:31.799Z,-3.30
2019-01-24T18:48:00.346Z,-3.30
2019-01-24T18:50:28.958Z,-3.30
2019-01-24T18:52:57.529Z,-3.30
2019-01-24T18:55:26.231Z,-3.30
2019-01-24T18:57:55.726Z,-3.30
2019-01-24T19:00:27.069Z,-3.30
2019-01-24T19:02:55.755Z,-3.30
2019-01-24T19:05:24.434Z,-3.30
2019-01-24T19:07:52.993Z,-3.30
2019-01-24T19:10:21.696Z,-3.30
2019-01-24T19:12:50.147Z,-3.30
2019-01-24T19:15:20.577Z,-3.30
2019-01-24T19:17:49.692Z,-3.40
2019-01-24T19:20:18.550Z,-3.40
2019-01-24T19:22:47.198Z,-3.40
2019-01-24T19:25:19.108Z,-3.30
2019-01-24T19:27:47.730Z,-3.30
2019-01-24T19:30:22.086Z,-3.30
2019-01-24T19:32:51.283Z,-3.30
2019-01-24T19:35:19.844Z,-3.30
2019-01-24T19:37:48.395Z,-3.30
2019-01-24T19:40:24.851Z,-3.30
2019-01-24T19:42:53.419Z,-3.30
2019-01-24T19:45:23.919Z,-3.30
2019-01-24T19:47:52.580Z,-3.30
2019-01-24T19:50:22.933Z,-3.30
2019-01-24T19:52:51.939Z,-3.30
2019-01-24T19:55:20.601Z,-3.30
2019-01-24T19:57:49.363Z,-3.30
2019-01-24T20:00:29.465Z,-3.30
2019-01-24T20:02:58.099Z,-3.30
2019-01-24T20:05:27.130Z,-3.30
2019-01-24T20:07:55.989Z,-3.30
2019-01-24T20:10:26.501Z,-3.30
2019-01-24T20:12:55.142Z,-3.30
2019-01-24T20:15:28.540Z,-3.30
2019-01-24T20:17:57.351Z,-3.30
2019-01-24T20:20:26.370Z,-3.30
2019-01-24T20:22:56.106Z,-3.30
2019-01-24T20:25:29.544Z,-3.30
2019-01-24T20:27:58.012Z,-3.30
2019-01-24T20:30:31.433Z,-3.20
2019-01-24T20:33:00.982Z,-3.20
2019-01-24T20:35:35.694Z,-3.30
2019-01-24T20:38:04.779Z,-3.30
2019-01-24T20:40:33.884Z,-3.30
2019-01-24T20:43:02.512Z,-3.30
2019-01-24T20:45:31.242Z,-3.30
2019-01-24T20:47:59.785Z,-3.30
2019-01-24T20:50:28.643Z,-3.30
2019-01-24T20:52:57.269Z,-3.30
2019-01-24T20:55:25.916Z,-3.30
2019-01-24T20:57:54.601Z,-3.20
2019-01-24T21:00:24.471Z,-3.30
2019-01-24T21:02:53.944Z,-3.30
2019-01-24T21:05:23.799Z,-3.30
2019-01-24T21:07:52.553Z,-3.30
2019-01-24T21:10:23.408Z,-3.30
2019-01-24T21:12:53.551Z,-3.20
2019-01-24T21:15:22.677Z,-3.20
2019-01-24T21:17:51.481Z,-3.30
2019-01-24T21:20:25.075Z,-3.30
2019-01-24T21:22:53.987Z,-3.30
2019-01-24T21:25:23.851Z,-3.30
2019-01-24T21:27:52.933Z,-3.30
2019-01-24T21:30:35.530Z,-3.30
2019-01-24T21:33:04.908Z,-3.30
2019-01-24T21:35:34.306Z,-3.30
2019-01-24T21:38:03.042Z,-3.30
2019-01-24T21:40:33.107Z,-3.30
2019-01-24T21:43:01.849Z,-3.30
2019-01-24T21:45:35.561Z,-3.30
2019-01-24T21:48:05.882Z,-3.30
2019-01-24T21:50:34.496Z,-3.30
2019-01-24T21:53:03.881Z,-3.30
2019-01-24T21:55:32.794Z,-3.30
2019-01-24T21:58:01.224Z,-3.30
2019-01-24T22:00:29.973Z,-3.20
2019-01-24T22:02:58.526Z,-3.30
2019-01-24T22:05:27.249Z,-3.30
2019-01-24T22:07:55.971Z,-3.30
2019-01-24T22:10:29.641Z,-3.30
2019-01-24T22:12:58.313Z,-3.40
2019-01-24T22:15:29.207Z,-3.40
2019-01-24T22:17:58.305Z,-3.30
2019-01-24T22:20:26.882Z,-3.30
2019-01-24T22:22:55.497Z,-3.30
2019-01-24T22:25:26.368Z,-3.30
2019-01-24T22:27:55.155Z,-3.30
2019-01-24T22:30:30.685Z,-3.40
2019-01-24T22:32:59.147Z,-3.30
2019-01-24T22:35:27.812Z,-3.30
2019-01-24T22:37:56.270Z,-3.30
2019-01-24T22:40:26.011Z,-3.30
2019-01-24T22:42:54.678Z,-3.40
2019-01-24T22:45:24.895Z,-3.30
2019-01-24T22:47:53.605Z,-3.40
2019-01-24T22:50:22.038Z,-3.40
2019-01-24T22:52:50.790Z,-3.40
2019-01-24T22:55:19.356Z,-3.40
2019-01-24T22:57:47.969Z,-3.40
2019-01-24T23:00:36.231Z,-3.40
2019-01-24T23:03:05.297Z,-3.40
2019-01-24T23:05:33.923Z,-3.40
2019-01-24T23:08:02.492Z,-3.40
2019-01-24T23:10:31.141Z,-3.40
2019-01-24T23:13:00.171Z,-3.50
2019-01-24T23:15:28.951Z,-3.50
2019-01-24T23:17:57.434Z,-3.50
2019-01-24T23:20:26.116Z,-3.50
2019-01-24T23:22:54.793Z,-3.50
2019-01-24T23:25:23.384Z,-3.50
2019-01-24T23:27:51.950Z,-3.60
2019-01-24T23:30:20.652Z,-3.60
2019-01-24T23:32:49.200Z,-3.60
2019-01-24T23:35:17.701Z,-3.60
2019-01-24T23:37:52.346Z,-3.60
2019-01-24T23:40:17.502Z,-3.60
2019-01-24T23:42:46.096Z,-3.60
2019-01-24T23:45:14.601Z,-3.60
2019-01-24T23:47:43.275Z,-3.60
2019-01-24T23:50:11.922Z,-3.60
2019-01-24T23:52:40.505Z,-3.70
2019-01-24T23:55:09.157Z,-3.70
2019-01-24T23:57:37.857Z,-3.60
